sensor_id;sensor_type;location;lat;lon;timestamp;P1;durP1;ratioP1;P2;durP2;ratioP2
23714;SDS011;12036;50.858;4.472;2024-01-30T00:01:42;6.30;;;3.63;;
23714;SDS011;12036;50.858;4.472;2024-01-30T00:04:08;5.05;;;3.58;;
23714;SDS011;12036;50.858;4.472;2024-01-30T00:06:33;5.88;;;3.70;;
23714;SDS011;12036;50.858;4.472;2024-01-30T00:08:59;5.13;;;3.63;;
23714;SDS011;12036;50.858;4.472;2024-01-30T00:11:25;5.32;;;3.40;;
23714;SDS011;12036;50.858;4.472;2024-01-30T00:13:51;4.63;;;3.50;;
23714;SDS011;12036;50.858;4.472;2024-01-30T00:16:21;8.60;;;3.80;;
23714;SDS011;12036;50.858;4.472;2024-01-30T00:18:49;5.97;;;3.10;;
23714;SDS011;12036;50.858;4.472;2024-01-30T00:21:15;4.43;;;3.15;;
23714;SDS011;12036;50.858;4.472;2024-01-30T00:23:40;7.03;;;3.58;;
23714;SDS011;12036;50.858;4.472;2024-01-30T00:26:06;7.65;;;3.30;;
23714;SDS011;12036;50.858;4.472;2024-01-30T00:28:32;5.32;;;3.42;;
23714;SDS011;12036;50.858;4.472;2024-01-30T00:30:57;4.18;;;3.22;;
23714;SDS011;12036;50.858;4.472;2024-01-30T00:33:23;5.85;;;3.50;;
23714;SDS011;12036;50.858;4.472;2024-01-30T00:35:49;6.38;;;3.72;;
23714;SDS011;12036;50.858;4.472;2024-01-30T00:38:15;4.85;;;3.55;;
23714;SDS011;12036;50.858;4.472;2024-01-30T00:40:40;4.70;;;3.55;;
23714;SDS011;12036;50.858;4.472;2024-01-30T00:43:06;5.20;;;3.53;;
23714;SDS011;12036;50.858;4.472;2024-01-30T00:45:32;6.32;;;3.58;;
23714;SDS011;12036;50.858;4.472;2024-01-30T00:47:58;7.63;;;3.50;;
23714;SDS011;12036;50.858;4.472;2024-01-30T00:50:23;7.20;;;3.38;;
23714;SDS011;12036;50.858;4.472;2024-01-30T00:52:49;6.70;;;3.45;;
23714;SDS011;12036;50.858;4.472;2024-01-30T00:55:15;5.93;;;3.13;;
23714;SDS011;12036;50.858;4.472;2024-01-30T00:57:40;4.88;;;3.25;;
23714;SDS011;12036;50.858;4.472;2024-01-30T01:00:07;5.25;;;3.47;;
23714;SDS011;12036;50.858;4.472;2024-01-30T01:02:34;7.72;;;3.65;;
23714;SDS011;12036;50.858;4.472;2024-01-30T01:05:01;6.60;;;3.22;;
23714;SDS011;12036;50.858;4.472;2024-01-30T01:07:27;4.78;;;3.30;;
23714;SDS011;12036;50.858;4.472;2024-01-30T01:09:52;5.68;;;3.38;;
23714;SDS011;12036;50.858;4.472;2024-01-30T01:12:18;7.30;;;3.72;;
23714;SDS011;12036;50.858;4.472;2024-01-30T01:14:44;6.97;;;3.53;;
23714;SDS011;12036;50.858;4.472;2024-01-30T01:17:10;5.97;;;3.40;;
23714;SDS011;12036;50.858;4.472;2024-01-30T01:19:36;5.38;;;3.28;;
23714;SDS011;12036;50.858;4.472;2024-01-30T01:22:01;5.68;;;3.75;;
23714;SDS011;12036;50.858;4.472;2024-01-30T01:24:28;8.23;;;3.70;;
23714;SDS011;12036;50.858;4.472;2024-01-30T01:26:55;5.25;;;3.60;;
23714;SDS011;12036;50.858;4.472;2024-01-30T01:29:22;5.78;;;3.33;;
23714;SDS011;12036;50.858;4.472;2024-01-30T01:31:53;9.23;;;3.63;;
23714;SDS011;12036;50.858;4.472;2024-01-30T01:34:22;5.80;;;3.30;;
23714;SDS011;12036;50.858;4.472;2024-01-30T01:36:51;4.60;;;3.33;;
23714;SDS011;12036;50.858;4.472;2024-01-30T01:39:20;4.93;;;3.10;;
23714;SDS011;12036;50.858;4.472;2024-01-30T01:41:47;4.80;;;3.05;;
23714;SDS011;12036;50.858;4.472;2024-01-30T01:44:13;5.57;;;3.30;;
23714;SDS011;12036;50.858;4.472;2024-01-30T01:46:39;4.57;;;3.35;;
23714;SDS011;12036;50.858;4.472;2024-01-30T01:49:05;8.65;;;3.97;;
23714;SDS011;12036;50.858;4.472;2024-01-30T01:51:33;7.57;;;3.50;;
23714;SDS011;12036;50.858;4.472;2024-01-30T01:54:01;6.30;;;3.42;;
23714;SDS011;12036;50.858;4.472;2024-01-30T01:56:31;5.43;;;3.67;;
23714;SDS011;12036;50.858;4.472;2024-01-30T01:58:59;8.45;;;3.70;;
23714;SDS011;12036;50.858;4.472;2024-01-30T02:01:29;6.70;;;3.70;;
23714;SDS011;12036;50.858;4.472;2024-01-30T02:03:55;7.18;;;3.33;;
23714;SDS011;12036;50.858;4.472;2024-01-30T02:06:21;4.50;;;3.20;;
23714;SDS011;12036;50.858;4.472;2024-01-30T02:08:47;6.40;;;3.60;;
23714;SDS011;12036;50.858;4.472;2024-01-30T02:11:13;7.53;;;3.35;;
23714;SDS011;12036;50.858;4.472;2024-01-30T02:13:40;5.93;;;3.25;;
23714;SDS011;12036;50.858;4.472;2024-01-30T02:16:06;4.18;;;3.03;;
23714;SDS011;12036;50.858;4.472;2024-01-30T02:18:31;4.80;;;3.50;;
23714;SDS011;12036;50.858;4.472;2024-01-30T02:20:58;6.25;;;3.08;;
23714;SDS011;12036;50.858;4.472;2024-01-30T02:23:29;5.25;;;3.45;;
23714;SDS011;12036;50.858;4.472;2024-01-30T02:25:55;7.15;;;3.42;;
23714;SDS011;12036;50.858;4.472;2024-01-30T02:28:21;12.65;;;3.70;;
23714;SDS011;12036;50.858;4.472;2024-01-30T02:30:47;4.15;;;3.22;;
23714;SDS011;12036;50.858;4.472;2024-01-30T02:33:12;4.72;;;3.22;;
23714;SDS011;12036;50.858;4.472;2024-01-30T02:35:38;5.63;;;3.13;;
23714;SDS011;12036;50.858;4.472;2024-01-30T02:38:04;8.98;;;3.03;;
23714;SDS011;12036;50.858;4.472;2024-01-30T02:40:30;6.78;;;3.22;;
23714;SDS011;12036;50.858;4.472;2024-01-30T02:42:56;4.63;;;3.25;;
23714;SDS011;12036;50.858;4.472;2024-01-30T02:45:24;6.80;;;3.58;;
23714;SDS011;12036;50.858;4.472;2024-01-30T02:47:49;5.93;;;3.20;;
23714;SDS011;12036;50.858;4.472;2024-01-30T02:50:15;6.20;;;3.10;;
23714;SDS011;12036;50.858;4.472;2024-01-30T02:52:41;6.07;;;3.47;;
23714;SDS011;12036;50.858;4.472;2024-01-30T02:55:09;7.00;;;3.03;;
23714;SDS011;12036;50.858;4.472;2024-01-30T02:57:34;6.65;;;3.15;;
23714;SDS011;12036;50.858;4.472;2024-01-30T03:00:00;4.40;;;3.35;;
23714;SDS011;12036;50.858;4.472;2024-01-30T03:02:26;8.90;;;4.00;;
23714;SDS011;12036;50.858;4.472;2024-01-30T03:04:51;6.78;;;3.45;;
23714;SDS011;12036;50.858;4.472;2024-01-30T03:07:17;4.15;;;2.80;;
23714;SDS011;12036;50.858;4.472;2024-01-30T03:09:43;5.47;;;3.20;;
23714;SDS011;12036;50.858;4.472;2024-01-30T03:12:09;3.95;;;2.90;;
23714;SDS011;12036;50.858;4.472;2024-01-30T03:14:34;7.57;;;3.20;;
23714;SDS011;12036;50.858;4.472;2024-01-30T03:17:00;6.30;;;3.10;;
23714;SDS011;12036;50.858;4.472;2024-01-30T03:19:26;5.03;;;3.38;;
23714;SDS011;12036;50.858;4.472;2024-01-30T03:21:52;8.77;;;3.15;;
23714;SDS011;12036;50.858;4.472;2024-01-30T03:24:17;6.63;;;3.00;;
23714;SDS011;12036;50.858;4.472;2024-01-30T03:26:43;5.68;;;3.00;;
23714;SDS011;12036;50.858;4.472;2024-01-30T03:29:09;4.53;;;3.13;;
23714;SDS011;12036;50.858;4.472;2024-01-30T03:31:34;4.40;;;3.13;;
23714;SDS011;12036;50.858;4.472;2024-01-30T03:34:00;4.25;;;3.22;;
23714;SDS011;12036;50.858;4.472;2024-01-30T03:36:26;5.68;;;3.15;;
23714;SDS011;12036;50.858;4.472;2024-01-30T03:38:52;7.10;;;2.92;;
23714;SDS011;12036;50.858;4.472;2024-01-30T03:41:18;7.80;;;2.95;;
23714;SDS011;12036;50.858;4.472;2024-01-30T03:43:43;7.50;;;3.22;;
23714;SDS011;12036;50.858;4.472;2024-01-30T03:46:09;5.28;;;3.17;;
23714;SDS011;12036;50.858;4.472;2024-01-30T03:48:38;6.30;;;3.35;;
23714;SDS011;12036;50.858;4.472;2024-01-30T03:51:04;5.07;;;3.10;;
23714;SDS011;12036;50.858;4.472;2024-01-30T03:53:30;4.40;;;2.92;;
23714;SDS011;12036;50.858;4.472;2024-01-30T03:55:56;5.43;;;3.30;;
23714;SDS011;12036;50.858;4.472;2024-01-30T03:58:21;5.82;;;3.35;;
23714;SDS011;12036;50.858;4.472;2024-01-30T04:00:47;4.28;;;3.33;;
23714;SDS011;12036;50.858;4.472;2024-01-30T04:03:16;8.98;;;3.38;;
23714;SDS011;12036;50.858;4.472;2024-01-30T04:05:42;4.38;;;3.28;;
23714;SDS011;12036;50.858;4.472;2024-01-30T04:08:08;5.00;;;3.33;;
23714;SDS011;12036;50.858;4.472;2024-01-30T04:10:33;6.05;;;3.30;;
23714;SDS011;12036;50.858;4.472;2024-01-30T04:12:59;4.65;;;3.13;;
23714;SDS011;12036;50.858;4.472;2024-01-30T04:15:25;5.90;;;3.53;;
23714;SDS011;12036;50.858;4.472;2024-01-30T04:17:51;4.95;;;3.50;;
23714;SDS011;12036;50.858;4.472;2024-01-30T04:20:17;5.93;;;3.20;;
23714;SDS011;12036;50.858;4.472;2024-01-30T04:22:43;5.63;;;3.58;;
23714;SDS011;12036;50.858;4.472;2024-01-30T04:25:10;5.05;;;3.45;;
23714;SDS011;12036;50.858;4.472;2024-01-30T04:27:36;4.43;;;3.13;;
23714;SDS011;12036;50.858;4.472;2024-01-30T04:30:02;8.95;;;3.67;;
23714;SDS011;12036;50.858;4.472;2024-01-30T04:32:28;5.45;;;3.47;;
23714;SDS011;12036;50.858;4.472;2024-01-30T04:34:54;5.22;;;3.20;;
23714;SDS011;12036;50.858;4.472;2024-01-30T04:37:20;6.35;;;3.65;;
23714;SDS011;12036;50.858;4.472;2024-01-30T04:39:45;5.93;;;3.13;;
23714;SDS011;12036;50.858;4.472;2024-01-30T04:42:11;7.72;;;3.72;;
23714;SDS011;12036;50.858;4.472;2024-01-30T04:44:37;5.18;;;3.20;;
23714;SDS011;12036;50.858;4.472;2024-01-30T04:47:03;4.20;;;2.85;;
23714;SDS011;12036;50.858;4.472;2024-01-30T04:49:30;7.80;;;3.88;;
23714;SDS011;12036;50.858;4.472;2024-01-30T04:51:56;6.25;;;3.30;;
23714;SDS011;12036;50.858;4.472;2024-01-30T04:54:22;6.10;;;3.53;;
23714;SDS011;12036;50.858;4.472;2024-01-30T04:56:48;4.68;;;3.63;;
23714;SDS011;12036;50.858;4.472;2024-01-30T04:59:14;5.60;;;3.40;;
23714;SDS011;12036;50.858;4.472;2024-01-30T05:01:39;9.52;;;3.60;;
23714;SDS011;12036;50.858;4.472;2024-01-30T05:04:07;8.77;;;3.75;;
23714;SDS011;12036;50.858;4.472;2024-01-30T05:06:33;7.07;;;3.65;;
23714;SDS011;12036;50.858;4.472;2024-01-30T05:08:58;4.82;;;3.35;;
23714;SDS011;12036;50.858;4.472;2024-01-30T05:11:24;4.70;;;3.25;;
23714;SDS011;12036;50.858;4.472;2024-01-30T05:13:50;5.30;;;3.17;;
23714;SDS011;12036;50.858;4.472;2024-01-30T05:16:15;5.95;;;3.80;;
23714;SDS011;12036;50.858;4.472;2024-01-30T05:18:41;6.82;;;3.45;;
23714;SDS011;12036;50.858;4.472;2024-01-30T05:21:06;4.72;;;3.47;;
23714;SDS011;12036;50.858;4.472;2024-01-30T05:23:32;5.38;;;3.55;;
23714;SDS011;12036;50.858;4.472;2024-01-30T05:25:58;10.23;;;4.00;;
23714;SDS011;12036;50.858;4.472;2024-01-30T05:28:25;7.15;;;3.63;;
23714;SDS011;12036;50.858;4.472;2024-01-30T05:30:51;7.88;;;4.22;;
23714;SDS011;12036;50.858;4.472;2024-01-30T05:33:17;6.95;;;4.03;;
23714;SDS011;12036;50.858;4.472;2024-01-30T05:35:42;8.60;;;3.58;;
23714;SDS011;12036;50.858;4.472;2024-01-30T05:38:08;5.05;;;3.70;;
23714;SDS011;12036;50.858;4.472;2024-01-30T05:40:34;6.38;;;3.70;;
23714;SDS011;12036;50.858;4.472;2024-01-30T05:42:59;7.68;;;3.85;;
23714;SDS011;12036;50.858;4.472;2024-01-30T05:45:26;7.00;;;4.00;;
23714;SDS011;12036;50.858;4.472;2024-01-30T05:47:52;8.13;;;3.70;;
23714;SDS011;12036;50.858;4.472;2024-01-30T05:50:18;4.55;;;3.58;;
23714;SDS011;12036;50.858;4.472;2024-01-30T05:52:44;7.25;;;3.60;;
23714;SDS011;12036;50.858;4.472;2024-01-30T05:55:11;7.25;;;3.72;;
23714;SDS011;12036;50.858;4.472;2024-01-30T05:57:37;5.18;;;3.17;;
23714;SDS011;12036;50.858;4.472;2024-01-30T06:00:03;5.90;;;4.20;;
23714;SDS011;12036;50.858;4.472;2024-01-30T06:02:30;5.30;;;3.70;;
23714;SDS011;12036;50.858;4.472;2024-01-30T06:04:56;11.15;;;4.07;;
23714;SDS011;12036;50.858;4.472;2024-01-30T06:07:21;7.80;;;4.10;;
23714;SDS011;12036;50.858;4.472;2024-01-30T06:09:47;7.45;;;3.38;;
23714;SDS011;12036;50.858;4.472;2024-01-30T06:12:13;5.80;;;3.65;;
23714;SDS011;12036;50.858;4.472;2024-01-30T06:14:39;5.57;;;4.00;;
23714;SDS011;12036;50.858;4.472;2024-01-30T06:17:04;7.22;;;4.05;;
23714;SDS011;12036;50.858;4.472;2024-01-30T06:19:30;6.43;;;4.13;;
23714;SDS011;12036;50.858;4.472;2024-01-30T06:21:56;6.20;;;3.72;;
23714;SDS011;12036;50.858;4.472;2024-01-30T06:24:22;6.25;;;3.75;;
23714;SDS011;12036;50.858;4.472;2024-01-30T06:26:47;6.03;;;4.07;;
23714;SDS011;12036;50.858;4.472;2024-01-30T06:29:13;7.03;;;3.90;;
23714;SDS011;12036;50.858;4.472;2024-01-30T06:31:42;9.02;;;4.22;;
23714;SDS011;12036;50.858;4.472;2024-01-30T06:34:11;10.85;;;3.88;;
23714;SDS011;12036;50.858;4.472;2024-01-30T06:36:37;6.15;;;3.97;;
23714;SDS011;12036;50.858;4.472;2024-01-30T06:39:03;8.38;;;3.85;;
23714;SDS011;12036;50.858;4.472;2024-01-30T06:41:29;5.93;;;4.05;;
23714;SDS011;12036;50.858;4.472;2024-01-30T06:43:55;5.60;;;3.90;;
23714;SDS011;12036;50.858;4.472;2024-01-30T06:46:21;9.52;;;4.15;;
23714;SDS011;12036;50.858;4.472;2024-01-30T06:48:46;6.05;;;4.10;;
23714;SDS011;12036;50.858;4.472;2024-01-30T06:51:12;6.05;;;3.83;;
23714;SDS011;12036;50.858;4.472;2024-01-30T06:53:38;5.45;;;4.10;;
23714;SDS011;12036;50.858;4.472;2024-01-30T06:56:04;7.53;;;4.05;;
23714;SDS011;12036;50.858;4.472;2024-01-30T06:58:30;6.40;;;4.22;;
23714;SDS011;12036;50.858;4.472;2024-01-30T07:00:56;8.00;;;3.80;;
23714;SDS011;12036;50.858;4.472;2024-01-30T07:03:21;7.25;;;4.50;;
23714;SDS011;12036;50.858;4.472;2024-01-30T07:05:47;6.03;;;4.00;;
23714;SDS011;12036;50.858;4.472;2024-01-30T07:08:13;7.93;;;4.30;;
23714;SDS011;12036;50.858;4.472;2024-01-30T07:10:42;7.22;;;4.50;;
23714;SDS011;12036;50.858;4.472;2024-01-30T07:13:10;10.98;;;4.25;;
23714;SDS011;12036;50.858;4.472;2024-01-30T07:15:37;6.65;;;4.22;;
23714;SDS011;12036;50.858;4.472;2024-01-30T07:18:03;8.35;;;5.00;;
23714;SDS011;12036;50.858;4.472;2024-01-30T07:20:29;7.65;;;4.18;;
23714;SDS011;12036;50.858;4.472;2024-01-30T07:22:57;6.40;;;4.00;;
23714;SDS011;12036;50.858;4.472;2024-01-30T07:25:23;7.05;;;4.35;;
23714;SDS011;12036;50.858;4.472;2024-01-30T07:27:52;5.78;;;4.00;;
23714;SDS011;12036;50.858;4.472;2024-01-30T07:30:18;11.43;;;4.53;;
23714;SDS011;12036;50.858;4.472;2024-01-30T07:32:44;5.95;;;4.28;;
23714;SDS011;12036;50.858;4.472;2024-01-30T07:35:10;7.50;;;4.13;;
23714;SDS011;12036;50.858;4.472;2024-01-30T07:37:36;12.25;;;4.40;;
23714;SDS011;12036;50.858;4.472;2024-01-30T07:40:02;11.88;;;4.43;;
23714;SDS011;12036;50.858;4.472;2024-01-30T07:42:28;11.77;;;4.63;;
23714;SDS011;12036;50.858;4.472;2024-01-30T07:44:54;7.53;;;4.55;;
23714;SDS011;12036;50.858;4.472;2024-01-30T07:47:19;10.25;;;4.45;;
23714;SDS011;12036;50.858;4.472;2024-01-30T07:49:45;7.45;;;4.07;;
23714;SDS011;12036;50.858;4.472;2024-01-30T07:52:10;7.75;;;3.65;;
23714;SDS011;12036;50.858;4.472;2024-01-30T07:54:42;8.45;;;4.57;;
23714;SDS011;12036;50.858;4.472;2024-01-30T07:57:15;7.88;;;4.50;;
23714;SDS011;12036;50.858;4.472;2024-01-30T07:59:44;6.97;;;4.28;;
23714;SDS011;12036;50.858;4.472;2024-01-30T08:02:10;10.82;;;4.72;;
23714;SDS011;12036;50.858;4.472;2024-01-30T08:04:37;13.48;;;4.60;;
23714;SDS011;12036;50.858;4.472;2024-01-30T08:07:02;7.65;;;4.63;;
23714;SDS011;12036;50.858;4.472;2024-01-30T08:09:28;11.32;;;4.38;;
23714;SDS011;12036;50.858;4.472;2024-01-30T08:11:54;8.70;;;4.57;;
23714;SDS011;12036;50.858;4.472;2024-01-30T08:14:19;13.60;;;4.55;;
23714;SDS011;12036;50.858;4.472;2024-01-30T08:16:45;9.48;;;4.30;;
23714;SDS011;12036;50.858;4.472;2024-01-30T08:19:11;12.85;;;4.78;;
23714;SDS011;12036;50.858;4.472;2024-01-30T08:21:36;9.10;;;4.82;;
23714;SDS011;12036;50.858;4.472;2024-01-30T08:24:03;10.52;;;5.07;;
23714;SDS011;12036;50.858;4.472;2024-01-30T08:26:29;14.50;;;4.70;;
23714;SDS011;12036;50.858;4.472;2024-01-30T08:28:55;9.48;;;4.35;;
23714;SDS011;12036;50.858;4.472;2024-01-30T08:31:21;11.95;;;5.15;;
23714;SDS011;12036;50.858;4.472;2024-01-30T08:33:47;8.63;;;4.53;;
23714;SDS011;12036;50.858;4.472;2024-01-30T08:36:12;10.57;;;4.80;;
23714;SDS011;12036;50.858;4.472;2024-01-30T08:38:38;9.43;;;5.03;;
23714;SDS011;12036;50.858;4.472;2024-01-30T08:41:04;10.05;;;4.78;;
23714;SDS011;12036;50.858;4.472;2024-01-30T08:43:30;7.90;;;4.50;;
23714;SDS011;12036;50.858;4.472;2024-01-30T08:45:58;9.38;;;5.72;;
23714;SDS011;12036;50.858;4.472;2024-01-30T08:48:29;12.18;;;4.95;;
23714;SDS011;12036;50.858;4.472;2024-01-30T08:50:55;7.40;;;5.00;;
23714;SDS011;12036;50.858;4.472;2024-01-30T08:53:21;12.75;;;5.18;;
23714;SDS011;12036;50.858;4.472;2024-01-30T08:55:47;11.73;;;5.35;;
23714;SDS011;12036;50.858;4.472;2024-01-30T08:58:12;10.68;;;4.97;;
23714;SDS011;12036;50.858;4.472;2024-01-30T09:00:38;9.98;;;5.18;;
23714;SDS011;12036;50.858;4.472;2024-01-30T09:03:04;10.55;;;4.97;;
23714;SDS011;12036;50.858;4.472;2024-01-30T09:05:29;7.97;;;5.00;;
23714;SDS011;12036;50.858;4.472;2024-01-30T09:07:55;9.73;;;5.68;;
23714;SDS011;12036;50.858;4.472;2024-01-30T09:10:21;8.88;;;4.85;;
23714;SDS011;12036;50.858;4.472;2024-01-30T09:12:47;11.75;;;4.53;;
23714;SDS011;12036;50.858;4.472;2024-01-30T09:15:13;14.82;;;5.22;;
23714;SDS011;12036;50.858;4.472;2024-01-30T09:17:39;13.50;;;5.47;;
23714;SDS011;12036;50.858;4.472;2024-01-30T09:20:05;9.32;;;5.25;;
23714;SDS011;12036;50.858;4.472;2024-01-30T09:22:31;11.05;;;4.82;;
23714;SDS011;12036;50.858;4.472;2024-01-30T09:24:56;13.00;;;5.40;;
23714;SDS011;12036;50.858;4.472;2024-01-30T09:27:22;14.13;;;5.68;;
23714;SDS011;12036;50.858;4.472;2024-01-30T09:29:48;16.40;;;5.50;;
23714;SDS011;12036;50.858;4.472;2024-01-30T09:32:14;8.95;;;5.03;;
23714;SDS011;12036;50.858;4.472;2024-01-30T09:34:40;13.88;;;6.05;;
23714;SDS011;12036;50.858;4.472;2024-01-30T09:37:07;19.20;;;7.63;;
23714;SDS011;12036;50.858;4.472;2024-01-30T09:39:32;12.82;;;5.93;;
23714;SDS011;12036;50.858;4.472;2024-01-30T09:44:48;18.95;;;9.85;;
23714;SDS011;12036;50.858;4.472;2024-01-30T09:47:17;21.58;;;10.45;;
23714;SDS011;12036;50.858;4.472;2024-01-30T09:49:43;15.30;;;8.93;;
23714;SDS011;12036;50.858;4.472;2024-01-30T09:52:09;17.63;;;8.13;;
23714;SDS011;12036;50.858;4.472;2024-01-30T09:54:35;27.15;;;11.90;;
23714;SDS011;12036;50.858;4.472;2024-01-30T09:57:03;23.98;;;9.75;;
23714;SDS011;12036;50.858;4.472;2024-01-30T09:59:29;18.98;;;8.82;;
23714;SDS011;12036;50.858;4.472;2024-01-30T10:01:55;12.20;;;6.90;;
23714;SDS011;12036;50.858;4.472;2024-01-30T10:04:21;12.65;;;7.13;;
23714;SDS011;12036;50.858;4.472;2024-01-30T10:06:47;18.52;;;8.25;;
23714;SDS011;12036;50.858;4.472;2024-01-30T10:09:13;18.10;;;7.60;;
23714;SDS011;12036;50.858;4.472;2024-01-30T10:11:39;13.13;;;8.63;;
23714;SDS011;12036;50.858;4.472;2024-01-30T10:14:05;17.67;;;8.95;;
23714;SDS011;12036;50.858;4.472;2024-01-30T10:16:30;26.67;;;13.27;;
23714;SDS011;12036;50.858;4.472;2024-01-30T10:18:56;21.45;;;11.05;;
23714;SDS011;12036;50.858;4.472;2024-01-30T10:21:21;16.35;;;9.20;;
23714;SDS011;12036;50.858;4.472;2024-01-30T10:23:47;15.77;;;8.05;;
23714;SDS011;12036;50.858;4.472;2024-01-30T10:26:16;19.30;;;9.38;;
23714;SDS011;12036;50.858;4.472;2024-01-30T10:28:42;15.18;;;9.20;;
23714;SDS011;12036;50.858;4.472;2024-01-30T10:31:08;13.75;;;7.40;;
23714;SDS011;12036;50.858;4.472;2024-01-30T10:33:34;16.15;;;7.07;;
23714;SDS011;12036;50.858;4.472;2024-01-30T10:36:00;13.77;;;7.07;;
23714;SDS011;12036;50.858;4.472;2024-01-30T10:38:31;14.75;;;8.63;;
23714;SDS011;12036;50.858;4.472;2024-01-30T10:40:58;16.10;;;8.50;;
23714;SDS011;12036;50.858;4.472;2024-01-30T10:43:40;15.38;;;7.95;;
23714;SDS011;12036;50.858;4.472;2024-01-30T10:46:14;17.38;;;6.85;;
23714;SDS011;12036;50.858;4.472;2024-01-30T10:48:44;11.30;;;6.82;;
23714;SDS011;12036;50.858;4.472;2024-01-30T10:51:15;14.68;;;7.85;;
23714;SDS011;12036;50.858;4.472;2024-01-30T10:53:43;13.90;;;8.30;;
23714;SDS011;12036;50.858;4.472;2024-01-30T10:56:11;16.75;;;9.15;;
23714;SDS011;12036;50.858;4.472;2024-01-30T10:58:38;22.33;;;7.75;;
23714;SDS011;12036;50.858;4.472;2024-01-30T11:01:04;12.35;;;6.72;;
23714;SDS011;12036;50.858;4.472;2024-01-30T11:03:31;11.13;;;7.07;;
23714;SDS011;12036;50.858;4.472;2024-01-30T11:05:59;14.70;;;6.38;;
23714;SDS011;12036;50.858;4.472;2024-01-30T11:08:26;16.30;;;6.68;;
23714;SDS011;12036;50.858;4.472;2024-01-30T11:10:56;12.75;;;6.10;;
23714;SDS011;12036;50.858;4.472;2024-01-30T11:13:26;11.43;;;5.97;;
23714;SDS011;12036;50.858;4.472;2024-01-30T11:15:53;17.45;;;6.38;;
23714;SDS011;12036;50.858;4.472;2024-01-30T11:18:22;10.60;;;5.53;;
23714;SDS011;12036;50.858;4.472;2024-01-30T11:20:51;12.52;;;4.47;;
23714;SDS011;12036;50.858;4.472;2024-01-30T11:23:17;9.48;;;4.35;;
23714;SDS011;12036;50.858;4.472;2024-01-30T11:25:46;12.57;;;5.00;;
23714;SDS011;12036;50.858;4.472;2024-01-30T11:28:13;10.00;;;4.68;;
23714;SDS011;12036;50.858;4.472;2024-01-30T11:30:40;11.68;;;5.78;;
23714;SDS011;12036;50.858;4.472;2024-01-30T11:33:12;6.35;;;3.55;;
23714;SDS011;12036;50.858;4.472;2024-01-30T11:35:43;10.73;;;3.25;;
23714;SDS011;12036;50.858;4.472;2024-01-30T11:38:12;7.82;;;2.20;;
23714;SDS011;12036;50.858;4.472;2024-01-30T11:40:39;5.65;;;2.33;;
23714;SDS011;12036;50.858;4.472;2024-01-30T11:43:06;3.58;;;1.70;;
23714;SDS011;12036;50.858;4.472;2024-01-30T11:45:34;6.60;;;1.48;;
23714;SDS011;12036;50.858;4.472;2024-01-30T11:48:00;4.93;;;1.63;;
23714;SDS011;12036;50.858;4.472;2024-01-30T11:50:28;2.03;;;1.42;;
23714;SDS011;12036;50.858;4.472;2024-01-30T11:52:54;4.57;;;1.15;;
23714;SDS011;12036;50.858;4.472;2024-01-30T11:55:20;3.58;;;1.08;;
23714;SDS011;12036;50.858;4.472;2024-01-30T11:57:46;4.10;;;1.23;;
23714;SDS011;12036;50.858;4.472;2024-01-30T12:00:15;2.50;;;1.17;;
23714;SDS011;12036;50.858;4.472;2024-01-30T12:02:43;3.38;;;1.30;;
23714;SDS011;12036;50.858;4.472;2024-01-30T12:05:09;5.38;;;1.20;;
23714;SDS011;12036;50.858;4.472;2024-01-30T12:07:35;3.33;;;0.70;;
23714;SDS011;12036;50.858;4.472;2024-01-30T12:10:01;2.47;;;0.70;;
23714;SDS011;12036;50.858;4.472;2024-01-30T12:12:28;2.25;;;0.68;;
23714;SDS011;12036;50.858;4.472;2024-01-30T12:14:54;3.00;;;1.02;;
23714;SDS011;12036;50.858;4.472;2024-01-30T12:17:30;5.72;;;0.80;;
23714;SDS011;12036;50.858;4.472;2024-01-30T12:20:09;2.40;;;0.30;;
23714;SDS011;12036;50.858;4.472;2024-01-30T12:22:36;1.80;;;0.70;;
23714;SDS011;12036;50.858;4.472;2024-01-30T12:25:16;5.78;;;0.85;;
23714;SDS011;12036;50.858;4.472;2024-01-30T12:27:43;1.15;;;0.32;;
23714;SDS011;12036;50.858;4.472;2024-01-30T12:30:12;1.85;;;1.00;;
23714;SDS011;12036;50.858;4.472;2024-01-30T12:32:39;2.42;;;1.35;;
23714;SDS011;12036;50.858;4.472;2024-01-30T12:35:07;2.40;;;0.88;;
23714;SDS011;12036;50.858;4.472;2024-01-30T12:37:37;1.85;;;0.60;;
23714;SDS011;12036;50.858;4.472;2024-01-30T12:40:03;3.33;;;1.10;;
23714;SDS011;12036;50.858;4.472;2024-01-30T12:42:29;1.05;;;0.50;;
23714;SDS011;12036;50.858;4.472;2024-01-30T12:44:57;7.28;;;0.60;;
23714;SDS011;12036;50.858;4.472;2024-01-30T12:47:24;5.78;;;0.88;;
23714;SDS011;12036;50.858;4.472;2024-01-30T12:49:49;5.15;;;0.70;;
23714;SDS011;12036;50.858;4.472;2024-01-30T12:52:18;4.18;;;0.60;;
23714;SDS011;12036;50.858;4.472;2024-01-30T12:54:45;3.10;;;0.70;;
23714;SDS011;12036;50.858;4.472;2024-01-30T12:57:11;3.92;;;0.70;;
23714;SDS011;12036;50.858;4.472;2024-01-30T12:59:37;3.42;;;0.60;;
23714;SDS011;12036;50.858;4.472;2024-01-30T13:02:03;1.63;;;0.50;;
23714;SDS011;12036;50.858;4.472;2024-01-30T13:04:29;3.33;;;0.50;;
23714;SDS011;12036;50.858;4.472;2024-01-30T13:06:54;1.77;;;0.60;;
23714;SDS011;12036;50.858;4.472;2024-01-30T13:09:20;1.58;;;0.70;;
23714;SDS011;12036;50.858;4.472;2024-01-30T13:11:46;2.65;;;0.73;;
23714;SDS011;12036;50.858;4.472;2024-01-30T13:14:12;2.05;;;0.65;;
23714;SDS011;12036;50.858;4.472;2024-01-30T13:16:38;1.17;;;0.40;;
23714;SDS011;12036;50.858;4.472;2024-01-30T13:19:03;2.25;;;0.88;;
23714;SDS011;12036;50.858;4.472;2024-01-30T13:21:29;4.00;;;0.55;;
23714;SDS011;12036;50.858;4.472;2024-01-30T13:23:54;2.33;;;0.65;;
23714;SDS011;12036;50.858;4.472;2024-01-30T13:26:20;2.15;;;0.60;;
23714;SDS011;12036;50.858;4.472;2024-01-30T13:28:47;5.38;;;0.70;;
23714;SDS011;12036;50.858;4.472;2024-01-30T13:31:13;5.15;;;0.57;;
23714;SDS011;12036;50.858;4.472;2024-01-30T13:33:40;2.88;;;0.52;;
23714;SDS011;12036;50.858;4.472;2024-01-30T13:36:06;3.70;;;0.70;;
23714;SDS011;12036;50.858;4.472;2024-01-30T13:38:32;2.53;;;0.65;;
23714;SDS011;12036;50.858;4.472;2024-01-30T13:40:58;3.70;;;0.70;;
23714;SDS011;12036;50.858;4.472;2024-01-30T13:43:24;3.83;;;0.90;;
23714;SDS011;12036;50.858;4.472;2024-01-30T13:45:50;2.90;;;0.80;;
23714;SDS011;12036;50.858;4.472;2024-01-30T13:48:16;2.83;;;0.70;;
23714;SDS011;12036;50.858;4.472;2024-01-30T13:50:42;7.55;;;1.00;;
23714;SDS011;12036;50.858;4.472;2024-01-30T13:53:07;4.50;;;0.70;;
23714;SDS011;12036;50.858;4.472;2024-01-30T13:55:33;2.63;;;0.77;;
23714;SDS011;12036;50.858;4.472;2024-01-30T13:57:59;4.75;;;0.80;;
23714;SDS011;12036;50.858;4.472;2024-01-30T14:00:26;3.90;;;0.70;;
23714;SDS011;12036;50.858;4.472;2024-01-30T14:02:52;4.32;;;0.60;;
23714;SDS011;12036;50.858;4.472;2024-01-30T14:05:20;4.13;;;0.60;;
23714;SDS011;12036;50.858;4.472;2024-01-30T14:07:46;6.57;;;0.70;;
23714;SDS011;12036;50.858;4.472;2024-01-30T14:10:12;3.50;;;0.70;;
23714;SDS011;12036;50.858;4.472;2024-01-30T14:12:38;3.92;;;0.82;;
23714;SDS011;12036;50.858;4.472;2024-01-30T14:15:04;5.47;;;0.70;;
23714;SDS011;12036;50.858;4.472;2024-01-30T14:17:30;3.33;;;0.80;;
23714;SDS011;12036;50.858;4.472;2024-01-30T14:19:55;2.15;;;0.63;;
23714;SDS011;12036;50.858;4.472;2024-01-30T14:22:21;3.38;;;0.77;;
23714;SDS011;12036;50.858;4.472;2024-01-30T14:24:47;2.33;;;0.60;;
23714;SDS011;12036;50.858;4.472;2024-01-30T14:27:12;1.67;;;0.60;;
23714;SDS011;12036;50.858;4.472;2024-01-30T14:29:38;3.90;;;0.90;;
23714;SDS011;12036;50.858;4.472;2024-01-30T14:32:04;6.50;;;0.60;;
23714;SDS011;12036;50.858;4.472;2024-01-30T14:34:30;1.85;;;0.75;;
23714;SDS011;12036;50.858;4.472;2024-01-30T14:36:56;1.90;;;0.57;;
23714;SDS011;12036;50.858;4.472;2024-01-30T14:39:22;5.93;;;0.70;;
23714;SDS011;12036;50.858;4.472;2024-01-30T14:41:48;1.10;;;0.50;;
23714;SDS011;12036;50.858;4.472;2024-01-30T14:44:14;2.42;;;0.75;;